Central, UT (84722)

3:41 PM MDT on April 18, 2015 (GMT -0600)
Pine Valley | | Change Station
CLOSE
Current Station
Personal Weather Station
Location: Pine Valley, UT
Elevation: 6640 ft
Nearby Weather Stations

Elev 6640 ft 37.39 °N, 113.53 °W | Updated 2 minutes ago

Clear
Clear
65.5 °F
Feels Like 65.5 °F
N
9.4
Wind Variable Wind from NW

Today
High -- | Low -- °F
--% Chance of Precip.
Yesterday
High -- | Low -- °F
Precip. -- in
6:55 AM 8:12 PM
New Moon, 0% visible
Pressure 29.92 in
Visibility 10.0 miles
Clouds Clear
Dew Point 22 °F
Humidity 19%
Rainfall 0.00 in
Snow Depth Not available.
UV 10 out of 12
Pollen 9.20 out of 12
Air Quality Not available.
Flu Activity Local Activity
METAR KCDC 182053Z AUTO 01009G17KT 330V030 10SM CLR 19/M09 A3004 RMK AO2 SLP131 T01941089 56013

More Conditions Fewer Conditions

Pressure 29.92 in
Visibility 10.0 miles
Clouds Clear
Dew Point 22 °F
Humidity 19%
Rainfall 0.00 in
Snow Depth Not available.
UV 10 out of 12
Pollen 9.20 out of 12
Air Quality Not available.
Flu Activity Local Activity
METAR KCDC 182053Z AUTO 01009G17KT 330V030 10SM CLR 19/M09 A3004 RMK AO2 SLP131 T01941089 56013

More Conditions Fewer Conditions

10-Day Weather Forecast

Almanac

Astronomy

Apr. 18, 2015 Rise Set
Actual Time
Civil Twilight
Nautical Twilight
Astronomical Twilight
Moon
Length of Visible Light
Length of Day
Tomorrow will be .
, % of the Moon is Illuminated

Today's Extremes

State Highs State Lows

Community

WunderPhotos

Upload Photos

1,814,538 photos uploaded!

WunderBlogs® & News

Nearby

Air Quality

  Air Quality AQ Index Pollutant
Not available.

Snow Depth

Station Depth Elevation

Earthquake Activity

City Distance Mag. Time & Date
Minimum magnitude displayed is 2.5.

Coastal Water Temperatures

Place Temperature

Stations

Nearby Weather Stations

Station Location Temp. Windchill Dew Point Humidity Wind Precip. Elev Updated Type